createdAt,value
2019-05-15T00:01:58.864Z,8.90
2019-05-15T00:04:28.232Z,8.90
2019-05-15T00:06:58.243Z,8.80
2019-05-15T00:09:28.671Z,8.70
2019-05-15T00:11:59.053Z,8.70
2019-05-15T00:14:28.928Z,8.70
2019-05-15T00:16:58.726Z,8.70
2019-05-15T00:19:28.503Z,8.60
2019-05-15T00:21:58.538Z,8.60
2019-05-15T00:24:28.765Z,8.60
2019-05-15T00:26:58.844Z,8.60
2019-05-15T00:29:29.029Z,8.60
2019-05-15T00:31:59.018Z,8.60
2019-05-15T00:34:29.743Z,8.60
2019-05-15T00:36:59.073Z,8.50
2019-05-15T00:39:28.565Z,8.50
2019-05-15T00:41:59.032Z,8.40
2019-05-15T00:44:28.511Z,8.40
2019-05-15T00:46:58.209Z,8.40
2019-05-15T00:49:29.004Z,8.40
2019-05-15T00:51:59.132Z,8.30
2019-05-15T00:54:28.750Z,8.30
2019-05-15T00:56:58.094Z,8.30
2019-05-15T00:59:29.933Z,8.30
2019-05-15T01:01:59.622Z,8.30
2019-05-15T01:04:30.117Z,8.30
2019-05-15T01:06:59.548Z,8.20
2019-05-15T01:09:29.290Z,8.20
2019-05-15T01:11:58.907Z,8.20
2019-05-15T01:14:28.233Z,8.20
2019-05-15T01:16:58.273Z,8.20
2019-05-15T01:19:28.775Z,8.20
2019-05-15T01:21:58.737Z,8.20
2019-05-15T01:24:29.352Z,8.20
2019-05-15T01:26:58.710Z,8.20
2019-05-15T01:29:40.640Z,8.20
2019-05-15T01:31:59.327Z,8.30
2019-05-15T01:34:29.888Z,8.30
2019-05-15T01:36:59.278Z,8.30
2019-05-15T01:39:29.067Z,8.30
2019-05-15T01:41:58.606Z,8.30
2019-05-15T01:44:28.690Z,8.40
2019-05-15T01:46:59.037Z,8.30
2019-05-15T01:49:28.648Z,8.30
2019-05-15T01:51:58.624Z,8.40
2019-05-15T01:54:28.842Z,8.40
2019-05-15T01:56:58.866Z,8.40
2019-05-15T01:59:28.551Z,8.50
2019-05-15T02:01:59.033Z,8.50
2019-05-15T02:04:29.578Z,8.60
2019-05-15T02:06:59.028Z,8.60
2019-05-15T02:09:28.441Z,8.70
2019-05-15T02:11:58.194Z,8.70
2019-05-15T02:14:28.524Z,8.70
2019-05-15T02:16:59.105Z,8.80
2019-05-15T02:19:28.876Z,8.80
2019-05-15T02:21:58.284Z,8.90
2019-05-15T02:24:28.425Z,8.90
2019-05-15T02:26:58.861Z,8.90
2019-05-15T02:29:28.687Z,8.90
2019-05-15T02:31:59.195Z,8.90
2019-05-15T02:34:30.029Z,8.90
2019-05-15T02:37:00.336Z,9.00
2019-05-15T02:39:30.106Z,9.00
2019-05-15T02:41:59.661Z,8.90
2019-05-15T02:44:29.355Z,8.90
2019-05-15T02:46:59.088Z,9.00
2019-05-15T02:49:30.164Z,9.00
2019-05-15T02:52:00.366Z,9.00
2019-05-15T02:54:30.310Z,9.10
2019-05-15T02:56:59.970Z,9.10
2019-05-15T02:59:29.404Z,9.20
2019-05-15T03:01:59.878Z,9.20
2019-05-15T03:04:29.487Z,9.20
2019-05-15T03:07:00.505Z,9.20
2019-05-15T03:09:30.128Z,9.30
2019-05-15T03:11:59.699Z,9.30
2019-05-15T03:14:29.414Z,9.40
2019-05-15T03:16:59.783Z,9.40
2019-05-15T03:19:30.111Z,9.40
2019-05-15T03:21:59.979Z,9.40
2019-05-15T03:24:29.621Z,9.40
2019-05-15T03:27:02.196Z,9.50
2019-05-15T03:29:31.693Z,9.50
2019-05-15T03:32:24.257Z,9.50
2019-05-15T03:34:46.903Z,9.50
2019-05-15T03:37:12.073Z,9.50
2019-05-15T03:39:41.536Z,9.60
2019-05-15T03:42:12.114Z,9.60
2019-05-15T03:44:44.764Z,9.60
2019-05-15T03:47:14.230Z,9.70
2019-05-15T03:49:45.487Z,9.70
2019-05-15T03:52:14.865Z,9.70
2019-05-15T03:54:44.278Z,9.70
2019-05-15T03:57:13.860Z,9.80
2019-05-15T03:59:43.426Z,9.80
2019-05-15T04:02:13.039Z,9.80
2019-05-15T04:04:42.448Z,9.80
2019-05-15T04:07:11.975Z,9.80
2019-05-15T04:09:41.347Z,9.80
2019-05-15T04:12:10.687Z,9.80
2019-05-15T04:14:40.076Z,9.90
2019-05-15T04:17:09.603Z,9.90
2019-05-15T04:19:39.365Z,9.90
2019-05-15T04:22:10.048Z,10.00
2019-05-15T04:24:39.821Z,10.00
2019-05-15T04:27:10.612Z,10.00
2019-05-15T04:29:40.485Z,10.00
2019-05-15T04:32:10.767Z,10.00
2019-05-15T04:34:40.601Z,10.00
2019-05-15T04:37:09.996Z,10.10
2019-05-15T04:39:40.250Z,10.10
2019-05-15T04:42:09.781Z,10.10
2019-05-15T04:47:24.069Z,10.20
2019-05-15T04:49:53.533Z,10.20
2019-05-15T04:52:30.508Z,10.20
2019-05-15T04:55:04.981Z,10.20
2019-05-15T04:57:39.531Z,10.30
2019-05-15T05:03:13.748Z,10.40
2019-05-15T05:05:49.867Z,10.40
2019-05-15T05:08:21.421Z,10.50
2019-05-15T05:10:51.157Z,10.50
2019-05-15T05:13:20.717Z,10.60
2019-05-15T05:15:50.634Z,10.60
2019-05-15T05:18:30.061Z,10.70
2019-05-15T05:20:59.583Z,10.80
2019-05-15T05:23:29.150Z,10.80
2019-05-15T05:29:19.338Z,11.00
2019-05-15T05:31:49.348Z,11.00
2019-05-15T05:34:19.474Z,11.00
2019-05-15T05:36:49.123Z,11.10
2019-05-15T05:42:12.123Z,11.20
2019-05-15T05:44:43.229Z,11.20
2019-05-15T05:47:14.085Z,11.30
2019-05-15T05:49:43.800Z,11.40
2019-05-15T05:52:15.075Z,11.40
2019-05-15T05:54:44.544Z,11.40
2019-05-15T05:57:15.674Z,11.50
2019-05-15T06:00:19.396Z,11.50
2019-05-15T06:03:08.871Z,11.60
2019-05-15T06:08:50.122Z,11.70
2019-05-15T06:11:19.585Z,11.70
2019-05-15T06:13:52.594Z,11.70
2019-05-15T06:16:21.769Z,11.80
2019-05-15T06:18:52.221Z,11.80
2019-05-15T06:21:32.321Z,11.80
2019-05-15T08:06:11.728Z,12.30
2019-05-15T08:08:49.017Z,12.30
2019-05-15T08:17:22.054Z,12.50
2019-05-15T08:19:58.425Z,12.60
2019-05-15T08:22:38.066Z,12.80
2019-05-15T08:25:12.980Z,12.90
2019-05-15T08:27:44.080Z,13.00
2019-05-15T08:30:18.373Z,13.10
2019-05-15T08:33:02.258Z,13.00
2019-05-15T08:35:43.774Z,13.00
2019-05-15T08:45:21.131Z,12.70
2019-05-15T11:26:41.703Z,15.30
2019-05-15T11:32:29.515Z,15.40
2019-05-15T12:06:14.799Z,17.40
2019-05-15T12:08:32.466Z,17.50
2019-05-15T12:26:34.002Z,17.80
2019-05-15T12:35:08.710Z,17.80
2019-05-15T12:37:44.611Z,17.90
2019-05-15T13:02:58.975Z,19.50
2019-05-15T13:27:02.450Z,18.80
2019-05-15T13:38:48.143Z,18.50
2019-05-15T13:44:08.988Z,19.00
2019-05-15T13:46:43.006Z,19.20
2019-05-15T14:12:58.968Z,21.40
2019-05-15T14:15:40.296Z,21.50
2019-05-15T14:18:22.382Z,21.60
2019-05-15T14:20:54.029Z,21.60
2019-05-15T14:23:26.410Z,21.60
2019-05-15T14:26:19.985Z,21.50
2019-05-15T14:28:45.340Z,21.50
2019-05-15T14:31:17.762Z,21.60
2019-05-15T14:33:49.145Z,21.70
2019-05-15T14:36:24.804Z,21.60
2019-05-15T14:38:54.295Z,21.40
2019-05-15T14:41:23.879Z,21.50
2019-05-15T14:43:59.017Z,21.60
2019-05-15T14:46:27.353Z,21.60
2019-05-15T14:48:59.674Z,21.60
2019-05-15T14:51:29.194Z,21.60
2019-05-15T14:54:01.568Z,21.70
2019-05-15T14:56:43.634Z,21.80
2019-05-15T14:59:12.220Z,21.80
2019-05-15T15:01:41.807Z,22.00
2019-05-15T15:04:18.320Z,22.00
2019-05-15T15:06:48.684Z,22.00
2019-05-15T15:09:18.926Z,22.00
2019-05-15T15:14:44.500Z,21.50
2019-05-15T15:17:16.386Z,21.40
2019-05-15T15:20:00.076Z,21.30
2019-05-15T15:23:00.043Z,21.10
2019-05-15T15:34:47.940Z,21.30
2019-05-15T15:37:20.600Z,21.30
2019-05-15T15:43:08.992Z,21.30
2019-05-15T15:46:00.564Z,21.40
2019-05-15T15:48:55.389Z,21.50
2019-05-15T15:51:25.079Z,21.30
2019-05-15T15:53:56.050Z,21.10
2019-05-15T15:56:30.473Z,21.00
2019-05-15T15:59:12.990Z,20.80
2019-05-15T16:01:49.675Z,20.80
2019-05-15T16:04:20.605Z,20.80
2019-05-15T16:06:54.473Z,20.70
2019-05-15T16:09:23.928Z,20.80
2019-05-15T16:12:03.525Z,20.80
2019-05-15T16:15:08.823Z,20.80
2019-05-15T16:17:24.387Z,20.80
2019-05-15T16:19:53.118Z,20.80
2019-05-15T16:25:28.701Z,20.80
2019-05-15T16:28:04.935Z,20.80
2019-05-15T16:30:48.163Z,20.90
2019-05-15T16:33:28.750Z,21.00
2019-05-15T16:35:43.369Z,21.00
2019-05-15T16:38:19.284Z,20.80
2019-05-15T16:40:52.352Z,20.50
2019-05-15T16:43:28.656Z,20.30
2019-05-15T16:49:18.708Z,19.80
2019-05-15T16:54:54.823Z,19.50
2019-05-15T16:57:28.374Z,19.30
2019-05-15T16:59:58.562Z,19.30
2019-05-15T17:02:32.357Z,19.10
2019-05-15T17:05:01.964Z,19.00
2019-05-15T17:07:58.772Z,18.90
2019-05-15T17:10:44.831Z,18.70
2019-05-15T17:13:23.132Z,18.60
2019-05-15T17:15:59.417Z,18.50
2019-05-15T17:21:21.044Z,18.40
2019-05-15T17:30:44.246Z,18.40
2019-05-15T18:12:41.385Z,17.50
2019-05-15T18:15:10.977Z,17.10
2019-05-15T18:18:00.829Z,17.00
2019-05-15T18:20:43.184Z,16.90
2019-05-15T18:23:15.805Z,16.70
2019-05-15T18:25:45.402Z,16.60
2019-05-15T19:26:04.952Z,14.60
2019-05-15T19:28:59.135Z,14.50
2019-05-15T19:31:35.814Z,14.40
2019-05-15T19:42:58.968Z,14.10
2019-05-15T19:52:58.992Z,13.90
2019-05-15T19:59:24.206Z,13.70
2019-05-15T20:01:48.576Z,13.50
2019-05-15T20:07:53.848Z,13.30
2019-05-15T20:10:50.181Z,13.20
2019-05-15T20:13:39.161Z,13.20
2019-05-15T20:16:13.549Z,13.10
2019-05-15T20:30:42.862Z,12.80
2019-05-15T20:33:25.399Z,12.70
2019-05-15T20:36:05.065Z,12.70
2019-05-15T20:38:38.879Z,12.60
2019-05-15T20:41:08.389Z,12.60
2019-05-15T20:43:51.762Z,12.50
2019-05-15T20:46:39.181Z,12.50
2019-05-15T20:49:19.308Z,12.40
2019-05-15T20:51:58.771Z,12.40
2019-05-15T20:54:43.869Z,12.30
2019-05-15T20:57:17.858Z,12.20
2019-05-15T21:00:11.485Z,12.20
2019-05-15T21:02:41.570Z,12.20
2019-05-15T21:05:11.339Z,12.20
2019-05-15T21:07:43.350Z,12.10
2019-05-15T21:10:13.770Z,12.10
2019-05-15T21:12:43.598Z,12.10
2019-05-15T21:15:13.519Z,12.10
2019-05-15T21:17:44.324Z,12.00
2019-05-15T21:20:40.927Z,12.00
2019-05-15T21:23:30.154Z,12.00
2019-05-15T21:30:09.996Z,11.90
2019-05-15T21:32:43.502Z,11.80
2019-05-15T21:35:13.318Z,11.80
2019-05-15T21:37:42.996Z,11.80
2019-05-15T21:40:12.953Z,11.70
2019-05-15T21:42:42.395Z,11.70
2019-05-15T21:45:14.520Z,11.60
2019-05-15T21:47:44.222Z,11.60
2019-05-15T21:50:14.706Z,11.60
2019-05-15T21:52:44.185Z,11.60
2019-05-15T21:55:18.591Z,11.60
2019-05-15T21:57:47.713Z,11.70
2019-05-15T22:00:32.841Z,11.70
2019-05-15T22:03:05.992Z,11.70
2019-05-15T22:05:38.408Z,11.80
2019-05-15T22:08:08.418Z,11.80
2019-05-15T22:10:43.527Z,11.80
2019-05-15T22:13:16.190Z,11.90
2019-05-15T22:15:50.218Z,11.90
2019-05-15T22:18:30.889Z,11.90
2019-05-15T22:21:14.165Z,11.90
2019-05-15T22:23:46.934Z,12.00
2019-05-15T22:26:22.653Z,12.00
2019-05-15T22:28:53.918Z,11.90
2019-05-15T22:31:26.276Z,11.90
2019-05-15T22:33:58.390Z,11.90
2019-05-15T22:36:31.278Z,11.90
2019-05-15T22:39:08.711Z,11.90
2019-05-15T22:41:39.891Z,11.90
2019-05-15T22:44:15.177Z,11.90
2019-05-15T22:46:48.727Z,11.80
2019-05-15T22:49:18.365Z,11.80
2019-05-15T22:51:48.641Z,11.80
2019-05-15T22:54:20.416Z,11.80
2019-05-15T22:56:49.388Z,11.70
2019-05-15T22:59:19.336Z,11.70
2019-05-15T23:01:49.757Z,11.60
2019-05-15T23:04:19.427Z,11.60
2019-05-15T23:06:48.871Z,11.60
2019-05-15T23:09:18.367Z,11.50
2019-05-15T23:11:48.474Z,11.50
2019-05-15T23:14:18.115Z,11.40
2019-05-15T23:16:48.306Z,11.40
2019-05-15T23:19:18.778Z,11.40
2019-05-15T23:21:48.758Z,11.30
2019-05-15T23:24:18.896Z,11.30
2019-05-15T23:26:48.448Z,11.30
2019-05-15T23:29:17.805Z,11.20
2019-05-15T23:31:48.581Z,11.20
2019-05-15T23:34:19.796Z,11.20
2019-05-15T23:36:49.361Z,11.20
2019-05-15T23:39:19.852Z,11.20
2019-05-15T23:41:49.235Z,11.20
2019-05-15T23:44:18.806Z,11.10
2019-05-15T23:46:48.730Z,11.10
2019-05-15T23:49:19.843Z,11.10
2019-05-15T23:51:49.520Z,11.00
2019-05-15T23:54:18.974Z,11.00
2019-05-15T23:56:49.407Z,10.90
2019-05-15T23:59:18.870Z,10.90
